Time;durP1;ratioP1;P1;durP2;ratioP2;P2;SDS_P1;SDS_P2;PMS_P1;PMS_P2;Temp;Humidity;BMP_temperature;BMP_pressure;BME280_temperature;BME280_humidity;BME280_pressure;Samples;Min_cycle;Max_cycle;Signal;HPM_P1;HPM_P2
2022/08/08 00:01:36;;;;;;;0.80;0.67;;;17.70;77.30;;;;;;5075433;28;20456;-77
2022/08/08 00:04:10;;;;;;;1.43;0.77;;;17.70;78.00;;;;;;5075695;28;20433;-77
2022/08/08 00:06:46;;;;;;;1.70;0.57;;;17.70;78.50;;;;;;5075284;28;20968;-77
2022/08/08 00:09:21;;;;;;;0.80;0.40;;;17.80;78.40;;;;;;5075622;28;20443;-77
2022/08/08 00:11:52;;;;;;;0.50;0.50;;;17.80;78.80;;;;;;5075459;28;20472;-77
2022/08/08 00:14:26;;;;;;;0.50;0.50;;;17.70;79.10;;;;;;5075519;28;20426;-77
2022/08/08 00:17:02;;;;;;;0.50;0.50;;;17.70;79.30;;;;;;5075455;28;20425;-77
2022/08/08 00:19:38;;;;;;;0.60;0.60;;;17.80;79.30;;;;;;5075020;28;20907;-77
2022/08/08 00:22:12;;;;;;;0.70;0.50;;;17.80;79.70;;;;;;5075346;28;20432;-77
2022/08/08 00:24:44;;;;;;;0.40;0.30;;;17.80;79.10;;;;;;5075325;28;20425;-77
2022/08/08 00:27:13;;;;;;;1.03;0.60;;;17.80;79.80;;;;;;5074851;28;20475;-77
2022/08/08 00:29:48;;;;;;;0.50;0.50;;;17.80;80.00;;;;;;5074857;28;20437;-77
2022/08/08 00:32:22;;;;;;;0.30;0.30;;;17.70;80.20;;;;;;5075155;28;20439;-77
2022/08/08 00:35:21;;;;;;;0.50;0.50;;;17.70;80.10;;;;;;5075123;28;20437;-77
2022/08/08 00:38:02;;;;;;;0.97;0.60;;;17.70;81.60;;;;;;5049120;28;20457;-77
2022/08/08 00:41:08;;;;;;;0.73;0.50;;;17.60;80.40;;;;;;5074746;28;20471;-78
2022/08/08 00:44:08;;;;;;;0.50;0.40;;;17.60;78.70;;;;;;5074898;28;20441;-77
2022/08/08 00:47:12;;;;;;;0.50;0.50;;;17.60;78.50;;;;;;5073620;28;20476;-77
2022/08/08 00:50:03;;;;;;;0.50;0.50;;;17.50;78.50;;;;;;5074652;28;20452;-77
2022/08/08 00:52:46;;;;;;;0.50;0.50;;;17.50;79.30;;;;;;5074731;28;20428;-77
2022/08/08 00:55:37;;;;;;;0.60;0.53;;;17.60;80.00;;;;;;5074659;28;20436;-77
2022/08/08 00:58:50;;;;;;;0.60;0.50;;;17.60;80.40;;;;;;5074631;28;20410;-77
2022/08/08 01:01:22;;;;;;;0.50;0.50;;;17.50;79.90;;;;;;5038187;28;20576;-77
2022/08/08 01:04:23;;;;;;;1.57;0.87;;;17.50;80.30;;;;;;5074508;28;20417;-77
2022/08/08 01:07:26;;;;;;;0.87;0.60;;;17.40;80.60;;;;;;5071743;28;20481;-77
2022/08/08 01:10:26;;;;;;;0.47;0.47;;;17.30;80.80;;;;;;5070084;28;20472;-77
2022/08/08 01:13:31;;;;;;;0.73;0.73;;;17.30;81.30;;;;;;5074272;28;20432;-77
2022/08/08 01:16:24;;;;;;;0.40;0.40;;;17.20;80.60;;;;;;5074302;28;20429;-77
2022/08/08 01:19:36;;;;;;;0.60;0.50;;;17.10;81.50;;;;;;5074214;28;20421;-77
2022/08/08 01:22:32;;;;;;;0.80;0.40;;;17.10;81.80;;;;;;5055061;28;20457;-77
2022/08/08 01:25:40;;;;;;;0.43;0.40;;;17.00;82.30;;;;;;5063659;28;20471;-77
2022/08/08 01:28:17;;;;;;;0.50;0.40;;;16.90;82.90;;;;;;5073900;28;20491;-77
2022/08/08 01:31:36;;;;;;;0.67;0.67;;;16.90;83.50;;;;;;5073615;28;20984;-77
2022/08/08 01:34:34;;;;;;;0.50;0.40;;;16.80;82.80;;;;;;5073941;28;20417;-77
2022/08/08 01:37:38;;;;;;;0.50;0.40;;;16.80;82.80;;;;;;5073862;28;20448;-77
2022/08/08 01:40:15;;;;;;;0.40;0.40;;;16.80;83.50;;;;;;5073779;28;20475;-77
2022/08/08 01:42:50;;;;;;;0.50;0.50;;;16.80;84.10;;;;;;5073416;28;20468;-77
2022/08/08 01:45:41;;;;;;;0.40;0.40;;;16.70;84.10;;;;;;5073796;28;20876;-77
2022/08/08 01:48:17;;;;;;;0.50;0.50;;;16.70;84.60;;;;;;5073402;28;20987;-77
2022/08/08 01:50:57;;;;;;;0.60;0.53;;;16.80;84.50;;;;;;5073641;28;20468;-77
2022/08/08 01:53:41;;;;;;;0.50;0.50;;;16.80;85.10;;;;;;5073683;28;20431;-77
2022/08/08 01:56:19;;;;;;;1.33;0.50;;;16.70;85.60;;;;;;5073521;28;20441;-77
2022/08/08 01:58:57;;;;;;;0.40;0.40;;;16.70;85.30;;;;;;5073554;28;20429;-77
2022/08/08 02:01:47;;;;;;;1.33;0.57;;;16.60;85.20;;;;;;5073541;28;20803;-77
2022/08/08 02:04:20;;;;;;;0.67;0.50;;;16.60;86.00;;;;;;5073222;28;20927;-77
2022/08/08 02:07:00;;;;;;;0.47;0.47;;;16.50;85.10;;;;;;5073416;28;20429;-77
2022/08/08 02:09:42;;;;;;;1.23;0.40;;;16.50;85.00;;;;;;5073461;28;20439;-77
2022/08/08 02:12:15;;;;;;;0.40;0.40;;;16.50;85.10;;;;;;5073449;28;20455;-77
2022/08/08 02:14:49;;;;;;;0.50;0.50;;;16.50;84.50;;;;;;5073430;28;20440;-77
2022/08/08 02:17:20;;;;;;;0.50;0.40;;;16.50;85.40;;;;;;5073372;28;20440;-77
2022/08/08 02:19:53;;;;;;;0.40;0.40;;;16.50;85.10;;;;;;5073340;28;20429;-77
2022/08/08 02:22:30;;;;;;;0.40;0.40;;;16.40;85.20;;;;;;5073356;28;20444;-77
2022/08/08 02:25:06;;;;;;;0.33;0.33;;;16.40;85.40;;;;;;5073320;28;20433;-77
2022/08/08 02:27:39;;;;;;;0.57;0.57;;;16.40;85.00;;;;;;5073293;28;20463;-77
2022/08/08 02:30:09;;;;;;;0.63;0.63;;;16.40;85.60;;;;;;5072831;28;20465;-77
2022/08/08 02:33:05;;;;;;;0.40;0.40;;;16.40;86.00;;;;;;5073202;28;20456;-77
2022/08/08 02:35:53;;;;;;;0.43;0.40;;;16.30;85.80;;;;;;5060186;28;20518;-77
2022/08/08 02:38:38;;;;;;;0.50;0.40;;;16.30;84.90;;;;;;5073282;28;20932;-77
2022/08/08 02:41:30;;;;;;;0.80;0.80;;;16.20;85.10;;;;;;5072600;28;20482;-77
2022/08/08 02:44:39;;;;;;;0.43;0.43;;;16.20;86.30;;;;;;5073074;28;20813;-77
2022/08/08 02:47:31;;;;;;;0.47;0.47;;;16.10;86.60;;;;;;5067545;28;20475;-77
2022/08/08 02:50:49;;;;;;;0.50;0.50;;;16.10;87.10;;;;;;5072636;28;20476;-77
2022/08/08 02:53:45;;;;;;;0.40;0.40;;;16.00;87.00;;;;;;5011050;28;20802;-77
2022/08/08 02:56:51;;;;;;;0.60;0.60;;;16.00;86.40;;;;;;5072721;28;20429;-77
2022/08/08 03:00:05;;;;;;;0.40;0.40;;;16.00;87.20;;;;;;5072702;28;20433;-77
2022/08/08 03:03:11;;;;;;;0.70;0.50;;;15.90;87.00;;;;;;5017506;28;20453;-77
2022/08/08 03:06:22;;;;;;;0.53;0.40;;;15.90;87.10;;;;;;5072904;28;20440;-77
2022/08/08 03:12:15;;;;;;;0.40;0.40;;;15.90;87.60;;;;;;5131603;27;21104;-77
2022/08/08 03:14:56;;;;;;;0.30;0.30;;;15.90;87.70;;;;;;5131850;27;20434;-77
2022/08/08 03:17:28;;;;;;;0.40;0.40;;;15.80;86.80;;;;;;5131929;27;20841;-77
2022/08/08 03:20:04;;;;;;;0.53;0.40;;;15.80;87.10;;;;;;5131563;27;20493;-77
2022/08/08 03:22:30;;;;;;;0.40;0.40;;;15.80;87.50;;;;;;5131639;27;20437;-77
2022/08/08 03:24:59;;;;;;;0.40;0.40;;;15.80;87.50;;;;;;5131591;27;20438;-77
2022/08/08 03:27:33;;;;;;;0.60;0.40;;;15.70;87.10;;;;;;5131572;27;20442;-77
2022/08/08 03:30:06;;;;;;;0.87;0.50;;;15.70;87.60;;;;;;5131171;27;20973;-77
2022/08/08 03:35:19;;;;;;;0.50;0.50;;;15.70;87.20;;;;;;5131171;28;20405;-77
2022/08/08 03:37:47;;;;;;;0.63;0.40;;;15.60;87.00;;;;;;5131385;27;20442;-77
2022/08/08 03:40:16;;;;;;;0.50;0.50;;;15.60;87.30;;;;;;5131186;27;20490;-77
2022/08/08 03:42:43;;;;;;;0.50;0.37;;;15.60;87.50;;;;;;5131279;27;20499;-77
2022/08/08 03:45:15;;;;;;;1.00;0.50;;;15.60;88.00;;;;;;5131229;27;20444;-77
2022/08/08 03:47:42;;;;;;;0.37;0.33;;;15.60;87.60;;;;;;5131165;27;20442;-77
2022/08/08 03:50:16;;;;;;;0.40;0.40;;;15.50;88.00;;;;;;5130769;27;20965;-77
2022/08/08 03:52:43;;;;;;;0.50;0.50;;;15.50;88.10;;;;;;5130831;27;20427;-77
2022/08/08 03:55:11;;;;;;;0.50;0.40;;;15.50;88.80;;;;;;5130729;27;20945;-77
2022/08/08 03:57:45;;;;;;;0.47;0.47;;;15.50;88.60;;;;;;5130692;27;20942;-77
2022/08/08 04:00:14;;;;;;;0.50;0.40;;;15.50;88.60;;;;;;5130547;27;20482;-77
2022/08/08 04:02:41;;;;;;;0.47;0.47;;;15.50;88.60;;;;;;5130903;27;20532;-77
2022/08/08 04:05:08;;;;;;;0.40;0.40;;;15.50;88.90;;;;;;5130557;27;20933;-77
2022/08/08 04:07:36;;;;;;;0.50;0.30;;;15.50;89.20;;;;;;5130429;27;20450;-77
2022/08/08 04:10:04;;;;;;;0.87;0.63;;;15.50;89.40;;;;;;5130183;27;20535;-77
2022/08/08 04:12:31;;;;;;;2.30;0.63;;;15.40;89.40;;;;;;5130695;27;20817;-77
2022/08/08 04:14:59;;;;;;;0.93;0.40;;;15.40;90.00;;;;;;5130671;27;20778;-77
2022/08/08 04:17:26;;;;;;;0.63;0.50;;;15.50;90.10;;;;;;5130562;27;20442;-77
2022/08/08 04:19:52;;;;;;;0.30;0.30;;;15.40;89.90;;;;;;5130078;27;20989;-77
2022/08/08 04:22:19;;;;;;;0.77;0.40;;;15.40;90.10;;;;;;5121237;27;20447;-77
2022/08/08 04:24:46;;;;;;;0.40;0.30;;;15.30;90.30;;;;;;5116789;27;20457;-77
2022/08/08 04:27:13;;;;;;;0.50;0.50;;;15.40;90.20;;;;;;5116717;28;20447;-77
2022/08/08 04:29:39;;;;;;;0.50;0.50;;;15.40;90.50;;;;;;5116591;28;20454;-77
2022/08/08 04:32:08;;;;;;;0.47;0.40;;;15.40;90.40;;;;;;5116615;28;20439;-77
2022/08/08 04:34:35;;;;;;;0.40;0.30;;;15.40;90.50;;;;;;5116184;28;20934;-77
2022/08/08 04:37:02;;;;;;;1.70;0.40;;;15.40;90.60;;;;;;5116306;28;20439;-77
2022/08/08 04:39:29;;;;;;;0.40;0.40;;;15.40;90.80;;;;;;5116396;28;20447;-77
2022/08/08 04:41:55;;;;;;;0.50;0.40;;;15.40;91.00;;;;;;5116060;28;21001;-77
2022/08/08 04:44:22;;;;;;;0.40;0.40;;;15.40;91.10;;;;;;5116409;28;20451;-77
2022/08/08 04:46:49;;;;;;;0.50;0.40;;;15.40;91.30;;;;;;5116352;28;20787;-77
2022/08/08 04:49:17;;;;;;;0.50;0.43;;;15.50;91.90;;;;;;5115995;28;20821;-77
2022/08/08 04:51:44;;;;;;;0.80;0.60;;;15.50;91.80;;;;;;5115891;27;20974;-77
2022/08/08 04:54:11;;;;;;;0.40;0.30;;;15.60;91.80;;;;;;5116309;28;20439;-77
2022/08/08 04:56:38;;;;;;;0.83;0.50;;;15.60;92.10;;;;;;5116058;28;20811;-77
2022/08/08 04:59:04;;;;;;;1.17;0.70;;;15.60;92.40;;;;;;5115819;27;20447;-77
2022/08/08 05:01:31;;;;;;;0.90;0.50;;;15.60;92.30;;;;;;5115616;28;21020;-77
2022/08/08 05:03:58;;;;;;;0.50;0.50;;;15.70;92.50;;;;;;5116017;28;20450;-77
2022/08/08 05:06:26;;;;;;;0.60;0.57;;;15.70;93.00;;;;;;5115986;28;20447;-77
2022/08/08 05:08:53;;;;;;;0.67;0.60;;;15.70;92.80;;;;;;5115621;28;20957;-77
2022/08/08 05:11:21;;;;;;;1.00;0.50;;;15.80;92.80;;;;;;5115483;28;20478;-77
2022/08/08 05:13:47;;;;;;;0.60;0.50;;;15.80;93.20;;;;;;5115546;28;20961;-77
2022/08/08 05:16:14;;;;;;;1.53;0.50;;;15.80;93.30;;;;;;5115771;28;20458;-77
2022/08/08 05:18:41;;;;;;;0.43;0.40;;;15.80;93.50;;;;;;5115470;28;20438;-77
2022/08/08 05:21:09;;;;;;;0.80;0.60;;;15.90;94.00;;;;;;5115266;28;20478;-77
2022/08/08 05:23:37;;;;;;;0.73;0.70;;;15.90;94.10;;;;;;5115650;28;20458;-77
2022/08/08 05:26:04;;;;;;;0.80;0.80;;;16.00;94.50;;;;;;5115298;28;20829;-77
2022/08/08 05:28:31;;;;;;;1.83;0.60;;;16.00;94.30;;;;;;5115599;28;20451;-77
2022/08/08 05:30:57;;;;;;;0.50;0.50;;;16.00;94.10;;;;;;5115432;28;20459;-77
2022/08/08 05:33:24;;;;;;;0.40;0.30;;;16.00;93.90;;;;;;5114218;28;20465;-77
2022/08/08 05:35:53;;;;;;;0.50;0.50;;;16.00;93.40;;;;;;5115427;28;20447;-77
2022/08/08 05:38:22;;;;;;;0.63;0.63;;;16.10;93.30;;;;;;5115413;28;20443;-77
2022/08/08 05:40:52;;;;;;;0.90;0.60;;;16.10;92.70;;;;;;5115199;28;20486;-77
2022/08/08 05:43:25;;;;;;;1.10;0.90;;;16.20;93.10;;;;;;5115245;28;20458;-77
2022/08/08 05:45:56;;;;;;;0.87;0.87;;;16.20;93.60;;;;;;5115271;28;20431;-77
2022/08/08 05:48:23;;;;;;;0.57;0.57;;;16.30;93.20;;;;;;5115258;28;20427;-77
2022/08/08 05:50:50;;;;;;;1.73;0.70;;;16.40;93.50;;;;;;5115014;28;20474;-77
2022/08/08 05:53:17;;;;;;;0.60;0.47;;;16.40;94.00;;;;;;5115051;27;20447;-77
2022/08/08 05:55:45;;;;;;;0.43;0.43;;;16.50;93.80;;;;;;5115042;28;20450;-77
2022/08/08 05:58:13;;;;;;;0.60;0.60;;;16.60;92.90;;;;;;5114975;28;20466;-77
2022/08/08 06:00:44;;;;;;;0.83;0.53;;;16.70;92.40;;;;;;5114785;28;20498;-77
2022/08/08 06:03:16;;;;;;;0.77;0.50;;;16.90;92.20;;;;;;5114904;28;20431;-77
2022/08/08 06:05:49;;;;;;;0.70;0.70;;;17.10;91.50;;;;;;5114859;28;20430;-77
2022/08/08 06:08:23;;;;;;;0.40;0.40;;;17.20;91.60;;;;;;5114832;28;20435;-77
2022/08/08 06:10:50;;;;;;;0.60;0.60;;;17.40;91.30;;;;;;5114234;28;20490;-77
2022/08/08 06:13:18;;;;;;;0.97;0.77;;;17.60;91.00;;;;;;5114692;28;20455;-77
2022/08/08 06:15:48;;;;;;;0.63;0.53;;;17.80;90.90;;;;;;5114646;28;20439;-77
2022/08/08 06:18:15;;;;;;;0.80;0.80;;;18.00;90.80;;;;;;5114585;28;20447;-77
2022/08/08 06:20:42;;;;;;;1.00;0.70;;;18.30;90.20;;;;;;5114416;28;20490;-77
2022/08/08 06:23:08;;;;;;;1.13;0.50;;;18.50;89.40;;;;;;5114526;28;20435;-77
2022/08/08 06:25:36;;;;;;;1.37;0.60;;;18.70;89.90;;;;;;5114177;28;20443;-77
2022/08/08 06:28:07;;;;;;;0.60;0.60;;;18.80;89.40;;;;;;5114410;28;20447;-77
2022/08/08 06:30:38;;;;;;;0.50;0.50;;;19.00;88.30;;;;;;5114971;28;20465;-78
2022/08/08 06:33:09;;;;;;;4.47;0.90;;;19.10;88.00;;;;;;5116061;28;20439;-77
2022/08/08 06:35:38;;;;;;;0.60;0.50;;;19.30;87.50;;;;;;5115180;28;20434;-77
2022/08/08 06:38:06;;;;;;;0.70;0.67;;;19.50;87.90;;;;;;5114254;28;20442;-77
2022/08/08 06:40:33;;;;;;;0.80;0.80;;;19.70;88.50;;;;;;5114059;28;20797;-77
2022/08/08 06:43:04;;;;;;;0.87;0.60;;;19.90;87.50;;;;;;5113926;28;20443;-77
2022/08/08 06:45:32;;;;;;;0.60;0.60;;;20.00;87.80;;;;;;5113907;28;20447;-77
2022/08/08 06:48:01;;;;;;;10.67;0.80;;;20.20;88.20;;;;;;5114087;28;20503;-77
2022/08/08 06:50:29;;;;;;;0.53;0.53;;;20.30;87.70;;;;;;5114008;28;20462;-78
2022/08/08 06:52:56;;;;;;;0.70;0.50;;;20.50;89.20;;;;;;5113736;28;20854;-77
2022/08/08 06:55:24;;;;;;;1.53;0.80;;;20.60;89.80;;;;;;5114005;28;20447;-77
2022/08/08 06:57:51;;;;;;;0.93;0.80;;;20.80;88.40;;;;;;5113716;28;20454;-77
2022/08/08 07:00:18;;;;;;;0.70;0.70;;;21.00;89.10;;;;;;5113616;28;20466;-78
2022/08/08 07:02:51;;;;;;;0.70;0.60;;;21.20;88.00;;;;;;5109161;28;20477;-78
2022/08/08 07:05:23;;;;;;;0.77;0.77;;;21.40;88.60;;;;;;5096825;28;20440;-78
2022/08/08 07:08:00;;;;;;;1.00;0.73;;;21.50;89.30;;;;;;5112561;28;20454;-78
2022/08/08 07:10:33;;;;;;;1.70;1.10;;;21.70;89.40;;;;;;5102994;28;20482;-78
2022/08/08 07:13:05;;;;;;;0.60;0.60;;;21.90;89.80;;;;;;5093528;28;20412;-78
2022/08/08 07:15:37;;;;;;;3.33;0.80;;;22.10;90.20;;;;;;5093611;28;20438;-78
2022/08/08 07:18:08;;;;;;;0.80;0.80;;;22.20;90.40;;;;;;5094656;28;20489;-78
2022/08/08 07:20:38;;;;;;;1.80;0.70;;;22.40;90.50;;;;;;5104091;28;20477;-84
2022/08/08 07:23:15;;;;;;;0.80;0.77;;;22.60;89.80;;;;;;5112795;28;20823;-78
2022/08/08 07:25:44;;;;;;;0.67;0.67;;;22.80;90.30;;;;;;5113713;28;20440;-83
2022/08/08 07:28:14;;;;;;;0.70;0.60;;;23.00;89.70;;;;;;5113126;28;21055;-84
2022/08/08 07:30:41;;;;;;;0.83;0.70;;;23.20;90.00;;;;;;5105303;28;20467;-78
2022/08/08 07:33:11;;;;;;;0.70;0.60;;;23.40;90.10;;;;;;5093797;28;20452;-78
2022/08/08 07:35:39;;;;;;;0.80;0.80;;;23.70;88.70;;;;;;5093392;28;20227;-78
2022/08/08 07:38:09;;;;;;;1.30;1.20;;;23.80;89.30;;;;;;5093010;28;20197;-78
2022/08/08 07:40:36;;;;;;;0.93;0.93;;;23.80;89.00;;;;;;5093163;28;20312;-78
2022/08/08 07:43:04;;;;;;;0.60;0.60;;;23.80;89.20;;;;;;5093051;28;20217;-78
2022/08/08 07:45:31;;;;;;;0.73;0.73;;;24.00;89.00;;;;;;5093823;28;20209;-78
2022/08/08 07:47:58;;;;;;;0.82;0.82;;;24.20;88.80;;;;;;5092825;28;20251;-78
2022/08/08 07:50:26;;;;;;;0.70;0.70;;;24.30;87.60;;;;;;5093299;28;20658;-84
2022/08/08 07:52:59;;;;;;;0.80;0.80;;;24.30;87.40;;;;;;5093290;28;20675;-84
2022/08/08 07:55:29;;;;;;;1.08;0.80;;;24.40;88.40;;;;;;5093179;28;20224;-85
2022/08/08 07:58:10;;;;;;;0.80;0.80;;;24.60;86.80;;;;;;5096089;28;20284;-79
2022/08/08 08:00:41;;;;;;;0.80;0.70;;;24.70;87.20;;;;;;5096518;28;20304;-78
2022/08/08 08:03:11;;;;;;;1.15;1.00;;;24.90;86.10;;;;;;5097023;28;20262;-79
2022/08/08 08:05:42;;;;;;;0.77;0.77;;;25.00;85.50;;;;;;5096809;28;20233;-79
2022/08/08 08:08:17;;;;;;;0.73;0.73;;;25.10;84.30;;;;;;5098547;28;20205;-80
2022/08/08 08:10:49;;;;;;;0.63;0.63;;;25.30;85.40;;;;;;5096272;28;20240;-79
2022/08/08 08:13:26;;;;;;;0.98;0.98;;;25.60;84.00;;;;;;5097401;28;20229;-79
2022/08/08 08:16:00;;;;;;;0.80;0.80;;;26.10;83.50;;;;;;5096297;28;20251;-79
2022/08/08 08:18:33;;;;;;;0.93;0.90;;;26.70;82.00;;;;;;5096611;28;20272;-79
2022/08/08 08:21:02;;;;;;;0.80;0.60;;;26.90;80.70;;;;;;5096523;28;20221;-79
2022/08/08 08:23:31;;;;;;;0.60;0.60;;;27.00;79.20;;;;;;5096340;28;20617;-78
2022/08/08 08:25:57;;;;;;;0.80;0.80;;;27.00;80.50;;;;;;5097676;28;20266;-78
2022/08/08 08:28:25;;;;;;;0.90;0.90;;;27.10;78.50;;;;;;5096606;28;20289;-78
2022/08/08 08:30:52;;;;;;;0.80;0.80;;;26.90;78.80;;;;;;5098011;28;20279;-82
2022/08/08 08:33:20;;;;;;;0.93;0.93;;;26.70;79.60;;;;;;5098539;28;20197;-79
2022/08/08 08:35:48;;;;;;;1.20;1.05;;;26.50;79.60;;;;;;5099165;28;20201;-84
2022/08/08 08:38:16;;;;;;;0.73;0.73;;;26.30;79.10;;;;;;5098577;28;20647;-78
2022/08/08 08:40:46;;;;;;;1.20;1.10;;;26.30;78.20;;;;;;5099243;28;20221;-78
2022/08/08 08:43:14;;;;;;;0.77;0.77;;;26.30;79.20;;;;;;5098019;28;20313;-78
2022/08/08 08:45:42;;;;;;;0.90;0.90;;;26.30;80.20;;;;;;5097641;28;20200;-85
2022/08/08 08:48:10;;;;;;;1.08;0.98;;;26.10;80.30;;;;;;5097639;28;20608;-85
2022/08/08 08:50:40;;;;;;;0.80;0.80;;;26.10;78.60;;;;;;5096870;28;20257;-77
2022/08/08 08:53:09;;;;;;;0.75;0.70;;;26.10;79.80;;;;;;5098113;28;20199;-79
2022/08/08 08:55:39;;;;;;;1.08;1.08;;;26.30;79.00;;;;;;5096992;28;20229;-78
2022/08/08 08:58:09;;;;;;;1.00;0.90;;;26.40;78.60;;;;;;5096089;28;20197;-82
2022/08/08 09:00:38;;;;;;;1.15;0.82;;;26.50;77.20;;;;;;5095855;28;20218;-79
2022/08/08 09:03:10;;;;;;;1.02;0.90;;;26.60;76.80;;;;;;5095521;28;20213;-85
2022/08/08 09:05:40;;;;;;;0.73;0.73;;;26.50;76.30;;;;;;5096541;28;20274;-78
2022/08/08 09:08:08;;;;;;;1.15;0.90;;;26.60;76.70;;;;;;5095927;28;20212;-82
2022/08/08 09:10:38;;;;;;;0.70;0.60;;;26.60;75.50;;;;;;5094957;28;20716;-81
2022/08/08 09:13:08;;;;;;;0.70;0.70;;;26.70;71.40;;;;;;5095881;28;20202;-83
2022/08/08 09:15:36;;;;;;;0.70;0.70;;;26.70;70.40;;;;;;5096240;28;20201;-78
2022/08/08 09:18:03;;;;;;;0.60;0.60;;;26.70;70.70;;;;;;5096311;28;20625;-78
2022/08/08 09:20:32;;;;;;;0.68;0.68;;;26.80;69.50;;;;;;5095356;28;20221;-78
2022/08/08 09:23:00;;;;;;;0.88;0.73;;;27.00;69.70;;;;;;5095227;28;20232;-78
2022/08/08 09:25:27;;;;;;;0.68;0.68;;;27.20;69.00;;;;;;5095320;28;20207;-78
2022/08/08 09:27:56;;;;;;;1.08;1.08;;;27.30;69.00;;;;;;5094909;28;20564;-78
2022/08/08 09:30:26;;;;;;;0.70;0.70;;;27.20;67.30;;;;;;5094813;28;20221;-78
2022/08/08 09:32:55;;;;;;;0.90;0.90;;;27.10;66.60;;;;;;5095418;28;20201;-78
2022/08/08 09:35:27;;;;;;;0.60;0.60;;;27.10;68.50;;;;;;5095086;28;20201;-78
2022/08/08 09:37:56;;;;;;;0.80;0.80;;;27.10;65.70;;;;;;5094781;28;20702;-78
2022/08/08 09:40:24;;;;;;;0.90;0.90;;;27.10;67.80;;;;;;5094946;28;20590;-78
2022/08/08 09:43:09;;;;;;;0.60;0.60;;;26.90;68.10;;;;;;5094553;28;20692;-81
2022/08/08 09:45:46;;;;;;;1.02;0.50;;;26.90;68.60;;;;;;5094943;28;20240;-78
2022/08/08 09:48:16;;;;;;;0.70;0.70;;;26.90;65.70;;;;;;5094848;28;20273;-81
2022/08/08 09:50:45;;;;;;;0.70;0.70;;;26.80;64.50;;;;;;5094726;28;20276;-78
2022/08/08 09:53:18;;;;;;;0.75;0.70;;;26.70;65.70;;;;;;5094419;28;20698;-78
2022/08/08 09:55:45;;;;;;;0.90;0.73;;;26.80;67.10;;;;;;5094416;28;20273;-78
2022/08/08 09:58:16;;;;;;;1.08;0.98;;;27.10;64.30;;;;;;5094281;28;20207;-77
2022/08/08 10:00:46;;;;;;;1.80;0.88;;;27.20;61.60;;;;;;5094215;28;20232;-77
2022/08/08 10:03:15;;;;;;;0.70;0.70;;;27.30;60.50;;;;;;5094208;28;20212;-78
2022/08/08 10:05:43;;;;;;;1.25;0.80;;;27.30;59.90;;;;;;5094463;28;20201;-77
2022/08/08 10:08:10;;;;;;;0.70;0.70;;;27.20;61.80;;;;;;5094446;28;20201;-78
2022/08/08 10:10:38;;;;;;;0.60;0.60;;;27.20;62.30;;;;;;5094053;28;20241;-78
2022/08/08 10:13:16;;;;;;;0.60;0.60;;;27.30;60.50;;;;;;5094440;28;20322;-78
2022/08/08 10:15:47;;;;;;;0.65;0.65;;;27.40;60.90;;;;;;5094356;28;20185;-79
2022/08/08 10:18:23;;;;;;;0.77;0.77;;;27.40;61.80;;;;;;5094023;28;20576;-78
2022/08/08 10:20:52;;;;;;;0.60;0.55;;;27.50;61.10;;;;;;5093558;28;20583;-79
2022/08/08 10:23:28;;;;;;;0.75;0.75;;;27.40;62.20;;;;;;5094017;28;20225;-78
2022/08/08 10:25:56;;;;;;;0.80;0.80;;;27.50;62.30;;;;;;5094245;28;20185;-79
2022/08/08 10:28:23;;;;;;;1.08;0.70;;;27.50;63.10;;;;;;5093827;28;20568;-80
2022/08/08 10:30:58;;;;;;;1.92;1.00;;;27.60;62.50;;;;;;5093935;28;20225;-79
2022/08/08 10:33:31;;;;;;;0.80;0.70;;;27.70;63.60;;;;;;5094056;28;20224;-79
2022/08/08 10:36:00;;;;;;;0.90;0.90;;;27.80;62.90;;;;;;5093980;28;20201;-80
2022/08/08 10:38:29;;;;;;;0.73;0.73;;;28.00;63.20;;;;;;5093942;28;20201;-79
2022/08/08 10:40:59;;;;;;;0.70;0.70;;;28.30;61.00;;;;;;5093814;28;20279;-79
2022/08/08 10:43:36;;;;;;;0.60;0.60;;;28.60;61.90;;;;;;5093776;28;20240;-79
2022/08/08 10:46:24;;;;;;;1.75;0.80;;;28.70;62.90;;;;;;5093544;28;20633;-77
2022/08/08 10:48:52;;;;;;;1.25;0.52;;;28.60;62.20;;;;;;5093994;28;20197;-79
2022/08/08 10:51:19;;;;;;;1.15;1.00;;;28.40;61.70;;;;;;5093692;28;20260;-78
2022/08/08 10:53:48;;;;;;;0.82;0.82;;;28.10;61.40;;;;;;5094285;28;20197;-79
2022/08/08 10:56:15;;;;;;;0.70;0.70;;;28.00;61.80;;;;;;5093342;28;20668;-79
2022/08/08 10:58:42;;;;;;;0.70;0.70;;;27.90;62.80;;;;;;5093707;28;20185;-79
2022/08/08 11:01:11;;;;;;;0.80;0.80;;;27.80;62.50;;;;;;5093355;28;20255;-79
2022/08/08 11:03:43;;;;;;;0.88;0.70;;;27.40;63.10;;;;;;5093519;28;20312;-79
2022/08/08 11:06:11;;;;;;;0.77;0.77;;;27.40;63.80;;;;;;5093569;28;20224;-79
2022/08/08 11:08:40;;;;;;;1.45;1.00;;;27.90;64.30;;;;;;5093628;28;20208;-83
2022/08/08 11:11:09;;;;;;;0.68;0.68;;;28.40;62.50;;;;;;5093046;28;20230;-79
2022/08/08 11:13:40;;;;;;;0.90;0.90;;;28.80;62.00;;;;;;5093560;28;20198;-81
2022/08/08 11:16:07;;;;;;;1.15;1.10;;;29.00;60.30;;;;;;5093496;28;20213;-80
2022/08/08 11:18:36;;;;;;;0.85;0.80;;;29.00;60.70;;;;;;5093461;28;20209;-79
2022/08/08 11:21:04;;;;;;;0.70;0.70;;;28.70;59.80;;;;;;5093414;28;20229;-79
2022/08/08 11:23:33;;;;;;;0.90;0.90;;;28.30;59.50;;;;;;5093296;28;20232;-80
2022/08/08 11:26:03;;;;;;;0.60;0.60;;;27.90;60.60;;;;;;5093409;28;20292;-80
2022/08/08 11:28:34;;;;;;;0.70;0.70;;;27.70;61.50;;;;;;5093351;28;20205;-80
2022/08/08 11:31:03;;;;;;;0.82;0.80;;;27.60;62.30;;;;;;5092995;28;20221;-79
2022/08/08 11:33:32;;;;;;;0.70;0.70;;;27.60;61.80;;;;;;5096951;28;20677;-79
2022/08/08 11:36:00;;;;;;;0.70;0.70;;;27.50;60.30;;;;;;5097198;28;20182;-79
2022/08/08 11:38:28;;;;;;;0.70;0.70;;;27.20;61.90;;;;;;5097060;28;20205;-79
2022/08/08 11:40:55;;;;;;;1.23;0.60;;;27.00;61.80;;;;;;5097225;28;20244;-80
2022/08/08 11:43:24;;;;;;;1.23;0.70;;;27.00;61.10;;;;;;5096918;28;20225;-79
2022/08/08 11:45:52;;;;;;;0.60;0.60;;;27.10;62.30;;;;;;5097190;28;20264;-79
2022/08/08 11:48:20;;;;;;;0.77;0.77;;;27.20;64.00;;;;;;5097173;28;20208;-78
2022/08/08 11:50:49;;;;;;;1.40;0.70;;;27.40;60.80;;;;;;5097066;28;20233;-78
2022/08/08 11:53:20;;;;;;;1.00;1.00;;;27.50;59.00;;;;;;5097027;28;20197;-79
2022/08/08 11:55:48;;;;;;;0.95;0.95;;;27.40;59.00;;;;;;5096929;28;20201;-79
2022/08/08 11:58:15;;;;;;;0.60;0.60;;;27.40;59.80;;;;;;5096680;28;20205;-79
2022/08/08 12:00:46;;;;;;;0.75;0.60;;;27.60;60.10;;;;;;5096899;28;20228;-80
2022/08/08 12:03:21;;;;;;;4.88;0.80;;;27.60;59.80;;;;;;5096538;28;20258;-78
2022/08/08 12:05:49;;;;;;;0.70;0.70;;;27.60;60.70;;;;;;5096926;28;20192;-77
2022/08/08 12:08:17;;;;;;;0.70;0.70;;;27.60;60.30;;;;;;5097597;28;20205;-79
2022/08/08 12:10:48;;;;;;;1.10;1.00;;;27.50;62.00;;;;;;5096263;28;20302;-78
2022/08/08 12:13:21;;;;;;;0.70;0.60;;;27.50;60.60;;;;;;5096419;28;20221;-78
2022/08/08 12:15:48;;;;;;;0.85;0.60;;;27.40;61.20;;;;;;5096701;28;20188;-80
2022/08/08 12:18:17;;;;;;;0.90;0.90;;;27.30;59.30;;;;;;5096300;28;20201;-80
2022/08/08 12:20:44;;;;;;;0.70;0.70;;;27.20;59.70;;;;;;5096482;28;20234;-80
2022/08/08 12:23:11;;;;;;;0.60;0.60;;;27.20;58.80;;;;;;5096087;28;20722;-79
2022/08/08 12:25:41;;;;;;;0.80;0.80;;;27.30;59.30;;;;;;5096478;28;20202;-79
2022/08/08 12:28:11;;;;;;;0.70;0.70;;;27.40;59.60;;;;;;5096385;28;20197;-80
2022/08/08 12:30:39;;;;;;;0.90;0.75;;;27.30;59.00;;;;;;5096256;28;20233;-80
2022/08/08 12:33:16;;;;;;;0.82;0.80;;;27.20;59.50;;;;;;5096298;28;20201;-80
2022/08/08 12:35:43;;;;;;;0.70;0.70;;;27.10;60.00;;;;;;5096728;28;20201;-80
2022/08/08 12:38:11;;;;;;;0.65;0.65;;;27.00;59.90;;;;;;5096188;28;20262;-79
2022/08/08 12:40:42;;;;;;;0.60;0.60;;;26.90;60.40;;;;;;5096118;28;20221;-80
2022/08/08 12:43:09;;;;;;;0.88;0.88;;;26.90;60.20;;;;;;5095614;28;20209;-79
2022/08/08 12:45:38;;;;;;;2.67;0.77;;;26.80;60.00;;;;;;5096025;28;20213;-79
2022/08/08 12:48:08;;;;;;;0.70;0.70;;;26.70;60.10;;;;;;5096034;28;20201;-79
2022/08/08 12:50:43;;;;;;;0.80;0.80;;;26.70;60.20;;;;;;5095902;28;20227;-79
2022/08/08 12:53:24;;;;;;;0.73;0.73;;;26.60;60.80;;;;;;5095733;28;20280;-79
2022/08/08 12:55:58;;;;;;;0.88;0.70;;;26.60;60.70;;;;;;5095556;28;20676;-79
2022/08/08 12:58:26;;;;;;;1.10;1.00;;;26.70;61.40;;;;;;5095877;28;20186;-79
2022/08/08 13:00:53;;;;;;;1.05;0.77;;;26.70;60.70;;;;;;5095710;28;20232;-78
2022/08/08 13:03:25;;;;;;;0.75;0.75;;;26.80;60.40;;;;;;5095692;28;20213;-79
2022/08/08 13:06:03;;;;;;;1.15;1.05;;;26.70;60.40;;;;;;5095697;28;20201;-78
2022/08/08 13:08:42;;;;;;;0.80;0.80;;;26.70;60.60;;;;;;5095430;28;20193;-78
2022/08/08 13:11:20;;;;;;;1.00;1.00;;;26.70;60.50;;;;;;5095121;28;20265;-78
2022/08/08 13:14:04;;;;;;;0.65;0.65;;;26.70;60.10;;;;;;5095250;28;20181;-80
2022/08/08 13:16:33;;;;;;;0.90;0.90;;;26.60;59.80;;;;;;5095545;28;20244;-79
2022/08/08 13:19:02;;;;;;;2.30;0.95;;;26.50;60.10;;;;;;5095458;28;20228;-79
2022/08/08 13:21:29;;;;;;;0.90;0.90;;;26.40;60.70;;;;;;5095040;28;20345;-80
2022/08/08 13:23:57;;;;;;;2.50;0.75;;;26.30;61.10;;;;;;5095001;28;20316;-79
2022/08/08 13:26:29;;;;;;;0.73;0.73;;;26.20;61.40;;;;;;5095286;28;20263;-79